Time;durP1;ratioP1;P1;durP2;ratioP2;P2;SDS_P1;SDS_P2;PMS_P1;PMS_P2;Temp;Humidity;BMP_temperature;BMP_pressure;BME280_temperature;BME280_humidity;BME280_pressure;Samples;Min_cycle;Max_cycle;Signal;HPM_P1;HPM_P2
2023/11/15 00:01:38;;;;;;;8.70;4.20;;;;;;;6.58;100.00;98331.20;105814;1252;60531;-70
2023/11/15 00:04:08;;;;;;;6.70;4.40;;;;;;;6.58;100.00;98334.71;105802;1253;72609;-71
2023/11/15 00:06:36;;;;;;;9.00;3.80;;;;;;;6.57;100.00;98334.86;105958;1253;69139;-72
2023/11/15 00:09:05;;;;;;;8.00;4.40;;;;;;;6.54;100.00;98339.56;105609;1255;72484;-71
2023/11/15 00:11:33;;;;;;;9.10;4.70;;;;;;;6.53;100.00;98328.59;105752;1254;60430;-71
2023/11/15 00:14:02;;;;;;;8.60;4.70;;;;;;;6.50;100.00;98332.39;106828;1257;60340;-72
2023/11/15 00:16:30;;;;;;;6.80;4.00;;;;;;;6.49;100.00;98332.61;107532;1256;73890;-70
2023/11/15 00:18:57;;;;;;;11.10;4.70;;;;;;;6.48;100.00;98332.98;107432;1253;68722;-68
2023/11/15 00:21:25;;;;;;;8.50;4.10;;;;;;;6.48;100.00;98336.67;106967;1259;72345;-66
2023/11/15 00:23:52;;;;;;;8.60;4.40;;;;;;;6.48;100.00;98336.90;106810;1255;60505;-69
2023/11/15 00:26:20;;;;;;;8.70;4.40;;;;;;;6.48;100.00;98335.52;107084;1253;60358;-70
2023/11/15 00:28:52;;;;;;;7.30;4.00;;;;;;;6.48;100.00;98330.23;107250;1254;73930;-68
2023/11/15 00:31:21;;;;;;;8.20;4.10;;;;;;;6.46;100.00;98337.60;107404;1259;70448;-71
2023/11/15 00:33:48;;;;;;;7.40;4.10;;;;;;;6.46;100.00;98337.52;107552;1254;71372;-68
2023/11/15 00:36:19;;;;;;;10.90;4.40;;;;;;;6.46;100.00;98334.11;107407;1254;60541;-69
2023/11/15 00:38:49;;;;;;;8.20;3.90;;;;;;;6.46;100.00;98332.55;107407;1252;60480;-69
2023/11/15 00:41:18;;;;;;;6.90;3.90;;;;;;;6.45;100.00;98326.14;107252;1254;72758;-67
2023/11/15 00:43:46;;;;;;;11.90;4.60;;;;;;;6.43;100.00;98323.91;106533;1259;68935;-69
2023/11/15 00:46:15;;;;;;;8.00;4.10;;;;;;;6.44;100.00;98316.61;107066;1258;72827;-68
2023/11/15 00:48:43;;;;;;;6.10;3.60;;;;;;;6.43;100.00;98325.50;107095;1256;60507;-69
2023/11/15 00:51:12;;;;;;;5.40;4.00;;;;;;;6.43;100.00;98324.14;107120;1254;60902;-69
2023/11/15 00:53:39;;;;;;;7.80;3.30;;;;;;;6.42;100.00;98318.98;106955;1254;71630;-70
2023/11/15 00:56:08;;;;;;;9.20;4.10;;;;;;;6.41;100.00;98315.09;107292;1254;70330;-69
2023/11/15 00:58:38;;;;;;;7.30;3.20;;;;;;;6.39;100.00;98311.94;107364;1253;72664;-70
2023/11/15 01:01:10;;;;;;;6.00;3.90;;;;;;;6.37;100.00;98310.91;108069;1254;60518;-71
2023/11/15 01:03:55;;;;;;;6.70;3.60;;;;;;;6.34;100.00;98308.27;108209;1253;61107;-72
2023/11/15 01:06:27;;;;;;;10.30;3.90;;;;;;;6.33;100.00;98311.63;107948;1254;72581;-71
2023/11/15 01:08:57;;;;;;;8.80;4.40;;;;;;;6.32;99.99;98309.94;107619;1254;69159;-73
2023/11/15 01:11:27;;;;;;;7.10;4.10;;;;;;;6.32;99.96;98305.36;107589;1254;72311;-70
2023/11/15 01:13:55;;;;;;;11.10;4.70;;;;;;;6.30;99.86;98306.27;107535;1257;320635;-72
2023/11/15 01:18:18;;;;;;;10.10;4.70;;;;;;;6.31;99.89;98295.27;104205;1294;600668;-72
2023/11/15 01:20:46;;;;;;;7.80;4.70;;;;;;;6.26;99.80;98294.27;105392;1269;60674;-69
2023/11/15 01:23:13;;;;;;;6.80;4.20;;;;;;;6.27;99.90;98289.67;107444;1267;59945;-69
2023/11/15 01:25:41;;;;;;;9.20;4.50;;;;;;;6.28;99.92;98285.88;107115;1269;71152;-72
2023/11/15 01:28:08;;;;;;;8.90;4.40;;;;;;;6.28;99.64;98280.34;106260;1273;69210;-73
2023/11/15 01:30:36;;;;;;;7.00;4.40;;;;;;;6.27;99.78;98278.30;106263;1266;72247;-69
2023/11/15 01:33:03;;;;;;;6.90;4.10;;;;;;;6.27;99.82;98277.21;105810;1266;187782;-71
2023/11/15 01:35:32;;;;;;;7.70;4.60;;;;;;;6.29;99.96;98278.45;106005;1266;59307;-71
2023/11/15 01:38:00;;;;;;;8.20;4.50;;;;;;;6.30;99.96;98283.27;106235;1270;70979;-70
2023/11/15 01:40:33;;;;;;;8.50;4.30;;;;;;;6.31;99.85;98284.86;107249;1265;68725;-69
2023/11/15 01:43:01;;;;;;;7.70;3.80;;;;;;;6.31;99.80;98287.37;107064;1267;71402;-69
2023/11/15 01:45:29;;;;;;;7.00;3.80;;;;;;;6.32;99.57;98286.36;106835;1265;61670;-69
2023/11/15 01:47:56;;;;;;;6.60;3.50;;;;;;;6.32;99.60;98287.92;106864;1266;60036;-70
2023/11/15 01:50:24;;;;;;;6.40;3.60;;;;;;;6.34;99.81;98284.24;106539;1269;70737;-70
2023/11/15 01:52:52;;;;;;;6.40;3.60;;;;;;;6.34;99.44;98283.84;106398;1264;68888;-72
2023/11/15 01:55:20;;;;;;;10.30;4.50;;;;;;;6.34;99.51;98288.57;106329;1265;71412;-70
2023/11/15 01:57:48;;;;;;;5.40;3.20;;;;;;;6.35;99.22;98286.41;105576;1267;61692;-71
2023/11/15 02:00:16;;;;;;;7.40;4.00;;;;;;;6.35;99.16;98284.47;107053;1265;59247;-70
2023/11/15 02:02:44;;;;;;;7.70;3.50;;;;;;;6.35;99.13;98281.24;108362;1256;72059;-72
2023/11/15 02:05:13;;;;;;;5.90;3.70;;;;;;;6.38;99.39;98279.70;108041;1254;69297;-71
2023/11/15 02:07:42;;;;;;;8.40;4.10;;;;;;;6.40;99.35;98281.06;106577;1256;71313;-71
2023/11/15 02:10:11;;;;;;;9.80;3.80;;;;;;;6.40;98.70;98283.67;106646;1256;60347;-72
2023/11/15 02:12:38;;;;;;;9.00;4.60;;;;;;;6.41;98.70;98284.80;107648;1254;58866;-70
2023/11/15 02:15:07;;;;;;;9.10;4.20;;;;;;;6.42;98.92;98289.56;107815;1257;72383;-72
2023/11/15 02:17:34;;;;;;;6.80;3.60;;;;;;;6.44;98.62;98287.39;107618;1259;68817;-71
2023/11/15 02:20:08;;;;;;;6.80;3.70;;;;;;;6.44;98.36;98284.95;106449;1260;70555;-72
2023/11/15 02:22:50;;;;;;;12.60;3.90;;;;;;;6.43;97.72;98291.66;106254;1259;61759;-69
2023/11/15 02:25:17;;;;;;;8.60;3.80;;;;;;;6.40;98.06;98292.44;106970;1254;60163;-70
2023/11/15 02:27:45;;;;;;;7.40;3.50;;;;;;;6.37;98.21;98296.45;107539;1256;74534;-72
2023/11/15 02:30:12;;;;;;;8.50;4.50;;;;;;;6.33;98.08;98297.70;107778;1256;68742;-70
2023/11/15 02:32:41;;;;;;;8.10;3.60;;;;;;;6.29;97.69;98301.95;107314;1258;70949;-71
2023/11/15 02:35:09;;;;;;;7.50;3.80;;;;;;;6.32;98.02;98301.83;107629;1256;60454;-69
2023/11/15 02:37:37;;;;;;;11.60;3.60;;;;;;;6.33;97.87;98306.46;107178;1255;59553;-73
2023/11/15 02:40:09;;;;;;;8.30;3.90;;;;;;;6.33;98.02;98310.20;107355;1256;70945;-68
2023/11/15 02:42:37;;;;;;;7.60;3.80;;;;;;;6.33;97.70;98311.95;107259;1261;68972;-70
2023/11/15 02:45:06;;;;;;;6.80;4.10;;;;;;;6.30;97.43;98310.29;106554;1256;71454;-72
2023/11/15 02:47:34;;;;;;;8.30;3.90;;;;;;;6.25;97.27;98307.65;106606;1259;61664;-71
2023/11/15 02:50:01;;;;;;;9.00;3.90;;;;;;;6.25;97.64;98308.08;106868;1254;59587;-70
2023/11/15 02:52:29;;;;;;;6.90;4.60;;;;;;;6.25;97.53;98304.39;106672;1256;71808;-66
2023/11/15 02:54:58;;;;;;;7.20;4.00;;;;;;;6.26;97.38;98311.28;107084;1256;70493;-69
2023/11/15 02:57:26;;;;;;;8.10;4.60;;;;;;;6.27;97.19;98318.80;106966;1259;72697;-73
2023/11/15 02:59:53;;;;;;;7.00;3.90;;;;;;;6.28;97.18;98322.30;107950;1256;60419;-71
2023/11/15 03:02:21;;;;;;;6.30;3.40;;;;;;;6.30;97.22;98321.54;107841;1256;59267;-71
2023/11/15 03:04:49;;;;;;;10.80;4.50;;;;;;;6.31;97.01;98319.55;107505;1258;71614;-73
2023/11/15 03:07:18;;;;;;;7.90;3.10;;;;;;;6.33;97.43;98328.30;106963;1258;68807;-70
2023/11/15 03:09:46;;;;;;;9.90;4.10;;;;;;;6.34;97.03;98329.23;106291;1258;71060;-69
2023/11/15 03:12:13;;;;;;;8.20;3.80;;;;;;;6.34;96.81;98329.55;105971;1260;60768;-69
2023/11/15 03:14:41;;;;;;;7.10;3.50;;;;;;;6.33;97.10;98329.48;106002;1257;60094;-69
2023/11/15 03:17:16;;;;;;;7.70;3.30;;;;;;;6.30;96.57;98324.73;105631;1257;72574;-70
2023/11/15 03:19:44;;;;;;;7.10;4.70;;;;;;;6.29;96.87;98318.46;105595;1261;69311;-70
2023/11/15 03:22:15;;;;;;;7.20;3.40;;;;;;;6.26;96.68;98324.83;105570;1261;71855;-73
2023/11/15 03:24:45;;;;;;;6.30;3.50;;;;;;;6.22;96.76;98333.19;105592;1256;61636;-72
2023/11/15 03:27:13;;;;;;;8.60;4.10;;;;;;;6.18;96.85;98335.30;106221;1259;59504;-73
2023/11/15 03:29:40;;;;;;;5.30;3.20;;;;;;;6.16;97.22;98333.00;106412;1260;75194;-71
2023/11/15 03:32:07;;;;;;;9.70;3.30;;;;;;;6.11;97.07;98333.55;105705;1260;70058;-71
2023/11/15 03:34:35;;;;;;;6.10;3.60;;;;;;;6.08;97.35;98327.16;106167;1259;72633;-72
2023/11/15 03:37:04;;;;;;;9.40;4.10;;;;;;;6.06;97.48;98329.91;106568;1256;60408;-74
2023/11/15 03:39:32;;;;;;;8.20;3.90;;;;;;;6.06;97.69;98337.70;106793;1260;59655;-72
2023/11/15 03:42:02;;;;;;;9.60;4.40;;;;;;;6.04;97.85;98341.89;106179;1258;73044;-73
2023/11/15 03:44:30;;;;;;;8.80;4.60;;;;;;;6.04;97.96;98340.59;105662;1259;70480;-74
2023/11/15 03:46:57;;;;;;;8.60;4.90;;;;;;;6.04;98.00;98341.20;105653;1258;74870;-70
2023/11/15 03:49:25;;;;;;;7.00;4.50;;;;;;;6.04;98.18;98339.95;105632;1259;60368;-71
2023/11/15 03:51:52;;;;;;;8.70;4.40;;;;;;;6.04;98.22;98337.31;105444;1257;59967;-74
2023/11/15 03:54:20;;;;;;;13.40;8.40;;;;;;;6.02;98.41;98334.42;105617;1257;71861;-73
2023/11/15 03:56:48;;;;;;;10.30;5.40;;;;;;;5.96;98.69;98325.40;105729;1262;69985;-69
2023/11/15 03:59:16;;;;;;;6.90;4.60;;;;;;;5.99;98.62;98334.61;105838;1258;71658;-70
2023/11/15 04:01:45;;;;;;;8.60;4.40;;;;;;;6.01;98.79;98331.17;105716;1257;61900;-70
2023/11/15 04:04:24;;;;;;;10.00;4.10;;;;;;;6.02;98.96;98329.64;105621;1258;59730;-70
2023/11/15 04:06:53;;;;;;;8.40;4.40;;;;;;;6.04;99.13;98335.75;105636;1254;73144;-71
2023/11/15 04:09:21;;;;;;;8.50;3.80;;;;;;;6.01;99.19;98333.80;105609;1259;70208;-72
2023/11/15 04:11:49;;;;;;;9.50;4.10;;;;;;;6.04;99.04;98335.80;105638;1255;72680;-71
2023/11/15 04:14:17;;;;;;;7.40;4.50;;;;;;;6.04;98.85;98333.30;105706;1255;61440;-73
2023/11/15 04:16:44;;;;;;;6.80;4.40;;;;;;;6.04;98.74;98334.84;105792;1260;60113;-72
2023/11/15 04:19:12;;;;;;;8.00;4.70;;;;;;;6.05;98.76;98334.97;105689;1264;71766;-70
2023/11/15 04:21:40;;;;;;;9.50;5.30;;;;;;;6.05;98.63;98336.55;105744;1258;70196;-72
2023/11/15 04:24:08;;;;;;;11.70;5.20;;;;;;;6.05;98.56;98338.06;105662;1260;72821;-71
2023/11/15 04:26:37;;;;;;;8.90;4.90;;;;;;;6.04;98.51;98331.06;105694;1255;61665;-71
2023/11/15 04:29:05;;;;;;;6.30;4.40;;;;;;;6.02;98.45;98342.82;105784;1259;59689;-71
2023/11/15 04:31:35;;;;;;;10.90;4.50;;;;;;;6.04;98.61;98343.14;105826;1254;71850;-71
2023/11/15 04:34:03;;;;;;;7.60;4.60;;;;;;;6.04;98.59;98350.36;105803;1259;68747;-71
2023/11/15 04:36:34;;;;;;;10.60;4.70;;;;;;;6.07;98.51;98358.95;105711;1260;74890;-70
2023/11/15 04:39:07;;;;;;;12.70;6.30;;;;;;;6.09;98.41;98358.42;105595;1259;60887;-70
2023/11/15 04:41:38;;;;;;;9.90;4.90;;;;;;;6.13;98.14;98358.55;105252;1262;59548;-69
2023/11/15 04:44:06;;;;;;;7.90;4.50;;;;;;;6.14;98.06;98360.53;105515;1258;70767;-67
2023/11/15 04:46:35;;;;;;;9.90;4.60;;;;;;;6.16;98.00;98354.79;105489;1260;68845;-67
2023/11/15 04:49:06;;;;;;;8.00;4.50;;;;;;;6.19;98.04;98362.62;105506;1259;71090;-67
2023/11/15 04:51:34;;;;;;;8.20;5.00;;;;;;;6.21;97.90;98357.17;105575;1260;60495;-69
2023/11/15 04:54:03;;;;;;;11.10;4.60;;;;;;;6.22;97.76;98354.64;105199;1261;59708;-70
2023/11/15 04:56:30;;;;;;;9.70;4.10;;;;;;;6.24;97.63;98362.55;105436;1254;71855;-69
2023/11/15 04:58:58;;;;;;;7.50;4.60;;;;;;;6.24;97.21;98366.96;105384;1260;69010;-70
2023/11/15 05:01:26;;;;;;;7.00;4.20;;;;;;;6.23;97.16;98367.56;105337;1254;71381;-70
2023/11/15 05:03:53;;;;;;;8.70;4.10;;;;;;;6.23;97.22;98376.14;105403;1259;60377;-68
2023/11/15 05:06:21;;;;;;;8.30;4.20;;;;;;;6.24;97.05;98387.02;105342;1254;59713;-67
2023/11/15 05:08:49;;;;;;;7.40;4.20;;;;;;;6.23;97.02;98389.36;105299;1260;73032;-71
2023/11/15 05:11:16;;;;;;;6.30;4.20;;;;;;;6.21;96.74;98386.79;105552;1263;68572;-70
2023/11/15 05:13:44;;;;;;;10.90;5.40;;;;;;;6.21;96.88;98397.17;105673;1257;71431;-71
2023/11/15 05:16:12;;;;;;;8.20;4.40;;;;;;;6.21;96.75;98403.14;105824;1259;61771;-72
2023/11/15 05:18:39;;;;;;;7.80;4.10;;;;;;;6.21;96.84;98404.66;105795;1258;59656;-72
2023/11/15 05:21:07;;;;;;;9.80;5.00;;;;;;;6.22;96.85;98400.13;105888;1254;73097;-72
2023/11/15 05:23:34;;;;;;;6.00;4.20;;;;;;;6.24;96.75;98396.52;105778;1254;69398;-72
2023/11/15 05:26:02;;;;;;;15.00;6.20;;;;;;;6.24;96.45;98401.27;105462;1259;71282;-73
2023/11/15 05:28:30;;;;;;;13.50;7.90;;;;;;;6.23;96.42;98406.95;105759;1258;61696;-71
2023/11/15 05:30:57;;;;;;;16.40;8.40;;;;;;;6.22;96.18;98405.64;105764;1261;60365;-74
2023/11/15 05:33:25;;;;;;;20.30;10.20;;;;;;;6.23;96.22;98404.52;105734;1260;73904;-70
2023/11/15 05:35:52;;;;;;;15.20;7.60;;;;;;;6.23;96.25;98404.48;105602;1259;70505;-67
2023/11/15 05:38:20;;;;;;;14.90;8.20;;;;;;;6.22;95.78;98407.23;105360;1257;70323;-71
2023/11/15 05:40:49;;;;;;;12.60;7.20;;;;;;;6.21;95.86;98405.38;105777;1258;60532;-72
2023/11/15 05:43:17;;;;;;;13.10;5.20;;;;;;;6.22;95.71;98401.65;105794;1257;60613;-71
2023/11/15 05:45:44;;;;;;;10.40;5.50;;;;;;;6.22;95.82;98403.66;105755;1260;73888;-73
2023/11/15 05:48:12;;;;;;;11.90;5.10;;;;;;;6.23;95.87;98400.27;105701;1255;69127;-73
2023/11/15 05:50:39;;;;;;;10.00;4.70;;;;;;;6.24;95.75;98404.58;105514;1261;71687;-71
2023/11/15 05:53:08;;;;;;;8.00;4.60;;;;;;;6.26;95.65;98405.16;105539;1261;61685;-71
2023/11/15 05:55:35;;;;;;;7.60;4.90;;;;;;;6.29;95.84;98405.70;105248;1260;60433;-69
2023/11/15 05:58:04;;;;;;;9.60;5.10;;;;;;;6.25;95.43;98416.41;105345;1260;73950;-71
2023/11/15 06:00:32;;;;;;;11.00;5.30;;;;;;;6.26;95.49;98413.93;105355;1259;69703;-72
2023/11/15 06:02:59;;;;;;;9.60;6.20;;;;;;;6.31;95.38;98414.17;105281;1258;73877;-72
2023/11/15 06:05:29;;;;;;;8.10;4.90;;;;;;;6.34;94.74;98417.67;106012;1254;61735;-72
2023/11/15 06:07:57;;;;;;;7.20;4.80;;;;;;;6.38;94.89;98413.49;105731;1260;60465;-71
2023/11/15 06:10:26;;;;;;;8.30;4.50;;;;;;;6.41;94.49;98417.88;105844;1254;72677;-71
2023/11/15 06:12:57;;;;;;;8.10;4.70;;;;;;;6.44;94.03;98419.50;105735;1261;70646;-71
2023/11/15 06:15:25;;;;;;;12.70;5.20;;;;;;;6.46;94.04;98415.77;105337;1254;72836;-71
2023/11/15 06:17:52;;;;;;;8.40;6.20;;;;;;;6.48;93.76;98415.71;105606;1254;61721;-73
2023/11/15 06:20:20;;;;;;;9.60;6.10;;;;;;;6.48;93.51;98407.96;105466;1254;60524;-71
2023/11/15 06:22:48;;;;;;;10.00;6.10;;;;;;;6.53;93.70;98405.88;105629;1259;72626;-70
2023/11/15 06:25:18;;;;;;;11.60;6.20;;;;;;;6.49;93.58;98409.90;105378;1260;69249;-72
2023/11/15 06:27:46;;;;;;;10.30;5.70;;;;;;;6.51;93.68;98408.84;105425;1257;72509;-72
2023/11/15 06:30:16;;;;;;;12.10;6.10;;;;;;;6.57;93.45;98407.02;105825;1260;60377;-71
2023/11/15 06:32:44;;;;;;;11.30;6.50;;;;;;;6.60;93.32;98402.70;105723;1254;60483;-71
2023/11/15 06:35:18;;;;;;;9.20;6.00;;;;;;;6.66;93.24;98403.13;105640;1258;73866;-72
2023/11/15 06:37:48;;;;;;;11.20;5.30;;;;;;;6.64;92.88;98409.48;105430;1260;70451;-72
2023/11/15 06:40:17;;;;;;;9.30;5.30;;;;;;;6.67;92.85;98408.96;105834;1254;72643;-71
2023/11/15 06:42:45;;;;;;;11.10;5.80;;;;;;;6.68;92.55;98411.70;106013;1263;60741;-72
2023/11/15 06:45:12;;;;;;;8.30;5.50;;;;;;;6.66;92.46;98416.63;105609;1258;60421;-72
2023/11/15 06:47:43;;;;;;;9.80;6.30;;;;;;;6.65;92.30;98418.59;105562;1260;72851;-74
2023/11/15 06:50:10;;;;;;;9.40;5.20;;;;;;;6.64;92.61;98417.59;105795;1259;69070;-73
2023/11/15 06:52:38;;;;;;;10.40;5.70;;;;;;;6.65;92.49;98423.10;105771;1258;73057;-72
2023/11/15 06:55:09;;;;;;;10.70;6.00;;;;;;;6.67;92.24;98419.65;105769;1254;60575;-74
2023/11/15 06:57:38;;;;;;;7.60;5.30;;;;;;;6.73;92.49;98424.00;105921;1257;60429;-74
2023/11/15 07:00:11;;;;;;;10.50;5.70;;;;;;;6.77;92.21;98422.06;106011;1255;73905;-75
2023/11/15 07:02:40;;;;;;;10.90;6.80;;;;;;;6.82;92.32;98426.38;105908;1254;69506;-74
2023/11/15 07:05:10;;;;;;;9.80;6.60;;;;;;;6.83;92.25;98429.45;105718;1257;72806;-73
2023/11/15 07:07:38;;;;;;;11.50;6.60;;;;;;;6.82;92.00;98431.37;105586;1260;60571;-74
2023/11/15 07:10:06;;;;;;;11.70;5.70;;;;;;;6.85;91.67;98431.41;105480;1255;60434;-74
2023/11/15 07:12:35;;;;;;;10.90;6.00;;;;;;;6.88;91.55;98433.67;105684;1258;72670;-74
2023/11/15 07:15:03;;;;;;;11.50;6.00;;;;;;;6.93;91.15;98428.75;105648;1260;69309;-75
2023/11/15 07:17:34;;;;;;;11.10;6.40;;;;;;;6.95;90.74;98440.28;105735;1258;72233;-74
2023/11/15 07:20:04;;;;;;;11.70;6.90;;;;;;;6.96;90.96;98432.98;105743;1254;60464;-74
2023/11/15 07:22:31;;;;;;;12.90;6.70;;;;;;;7.03;90.51;98432.52;105641;1254;60486;-74
2023/11/15 07:25:00;;;;;;;10.70;6.80;;;;;;;7.08;90.13;98429.65;105756;1254;73984;-74
2023/11/15 07:27:29;;;;;;;11.80;6.30;;;;;;;7.12;89.91;98427.73;105958;1254;70389;-76
2023/11/15 07:29:56;;;;;;;11.70;6.60;;;;;;;7.17;89.76;98422.61;105845;1256;73298;-74
2023/11/15 07:32:25;;;;;;;11.50;5.80;;;;;;;7.19;90.13;98422.55;105716;1254;60931;-72
2023/11/15 07:34:54;;;;;;;9.50;5.90;;;;;;;7.24;90.30;98415.08;105735;1254;60465;-76
2023/11/15 07:37:22;;;;;;;10.90;4.70;;;;;;;7.38;89.41;98414.91;105728;1260;73720;-75
2023/11/15 07:39:50;;;;;;;11.10;4.90;;;;;;;7.49;89.81;98412.36;105765;1254;70426;-74
2023/11/15 07:42:17;;;;;;;9.30;5.10;;;;;;;7.55;89.52;98410.46;105697;1254;73980;-77
2023/11/15 07:44:45;;;;;;;9.70;4.80;;;;;;;7.55;89.02;98407.38;105774;1260;61632;-76
2023/11/15 07:47:14;;;;;;;8.80;5.20;;;;;;;7.68;89.10;98407.08;105764;1260;60459;-74
2023/11/15 07:49:42;;;;;;;9.80;4.90;;;;;;;7.81;89.02;98407.54;105791;1254;73226;-73
2023/11/15 07:52:10;;;;;;;15.20;6.00;;;;;;;7.88;88.35;98409.83;106026;1254;69123;-73
2023/11/15 07:54:46;;;;;;;11.40;5.70;;;;;;;7.86;87.54;98411.83;105731;1255;73000;-74
2023/11/15 07:57:13;;;;;;;11.40;5.40;;;;;;;7.87;87.53;98403.96;105600;1257;61728;-72
2023/11/15 07:59:41;;;;;;;9.20;5.20;;;;;;;7.94;87.69;98406.80;105728;1259;61674;-74
2023/11/15 08:02:08;;;;;;;12.80;5.00;;;;;;;7.92;87.53;98403.20;105743;1254;73825;-72
2023/11/15 08:04:36;;;;;;;7.60;4.70;;;;;;;7.89;87.71;98398.33;105681;1255;68917;-73
2023/11/15 08:07:04;;;;;;;15.20;5.00;;;;;;;7.97;87.73;98394.31;105799;1254;71150;-71
2023/11/15 08:09:32;;;;;;;9.70;5.70;;;;;;;8.08;87.87;98400.20;105567;1257;60522;-74
2023/11/15 08:12:00;;;;;;;13.60;5.80;;;;;;;8.12;86.69;98406.95;105785;1253;60405;-75
2023/11/15 08:14:32;;;;;;;10.70;5.10;;;;;;;8.23;86.53;98392.47;105713;1260;73792;-73
2023/11/15 08:16:59;;;;;;;7.70;5.40;;;;;;;8.34;86.18;98393.36;105749;1257;69930;-76
2023/11/15 08:19:27;;;;;;;8.40;5.50;;;;;;;8.41;86.58;98393.06;105614;1257;72810;-75
2023/11/15 08:21:56;;;;;;;12.20;5.80;;;;;;;8.48;85.70;98390.62;105830;1254;60505;-75
2023/11/15 08:24:24;;;;;;;9.50;5.90;;;;;;;8.66;86.31;98395.16;105751;1254;60487;-74
2023/11/15 08:26:55;;;;;;;10.20;4.60;;;;;;;8.83;85.27;98394.84;105700;1260;73791;-73
2023/11/15 08:29:23;;;;;;;13.50;6.20;;;;;;;8.93;84.12;98400.20;105461;1259;68703;-77
2023/11/15 08:31:50;;;;;;;10.70;6.10;;;;;;;9.04;83.99;98396.02;105723;1260;70717;-75
2023/11/15 08:34:20;;;;;;;11.90;5.20;;;;;;;9.24;83.17;98393.13;105902;1254;60523;-75
2023/11/15 08:36:50;;;;;;;8.60;5.20;;;;;;;9.43;82.80;98397.67;105773;1254;60522;-75
2023/11/15 08:39:22;;;;;;;11.20;5.10;;;;;;;9.52;80.62;98398.47;105892;1254;72587;-76
2023/11/15 08:41:49;;;;;;;8.70;5.00;;;;;;;9.55;80.83;98393.23;105877;1258;68281;-73
2023/11/15 08:44:20;;;;;;;8.60;5.40;;;;;;;9.67;80.08;98394.67;105781;1260;71485;-75
2023/11/15 08:46:48;;;;;;;10.60;5.10;;;;;;;9.76;80.75;98394.20;105772;1254;60534;-75
2023/11/15 08:49:15;;;;;;;9.80;5.20;;;;;;;9.91;80.27;98390.13;105901;1256;60499;-75
2023/11/15 08:51:47;;;;;;;8.90;4.80;;;;;;;10.15;79.56;98389.69;105915;1258;73865;-75
2023/11/15 08:54:16;;;;;;;9.50;4.90;;;;;;;10.51;78.08;98380.14;105928;1255;71607;-75
2023/11/15 08:56:45;;;;;;;11.00;5.30;;;;;;;10.84;76.54;98373.46;105888;1254;72740;-74
2023/11/15 08:59:14;;;;;;;8.50;5.10;;;;;;;11.11;74.29;98371.26;105944;1254;60450;-74
2023/11/15 09:01:44;;;;;;;7.50;5.20;;;;;;;11.37;74.06;98366.30;105777;1254;60534;-75
2023/11/15 09:04:12;;;;;;;10.20;5.10;;;;;;;11.68;73.89;98364.67;106004;1258;72648;-75
2023/11/15 09:06:47;;;;;;;9.00;5.10;;;;;;;12.15;72.07;98364.61;105889;1257;69424;-74
2023/11/15 09:09:16;;;;;;;10.90;5.70;;;;;;;12.62;70.96;98360.30;105764;1259;71542;-74
2023/11/15 09:11:44;;;;;;;8.20;5.40;;;;;;;13.04;69.48;98356.67;105784;1254;60514;-75
2023/11/15 09:14:14;;;;;;;7.90;5.20;;;;;;;13.29;67.86;98356.18;105807;1254;60530;-77
2023/11/15 09:16:44;;;;;;;10.60;4.90;;;;;;;13.43;66.29;98351.92;105750;1254;72871;-73
2023/11/15 09:19:16;;;;;;;10.10;4.40;;;;;;;13.64;65.72;98353.39;105777;1253;72188;-73
2023/11/15 09:21:44;;;;;;;8.00;4.90;;;;;;;13.99;65.50;98353.11;105718;1260;71690;-73
2023/11/15 09:24:18;;;;;;;9.80;4.90;;;;;;;14.34;63.18;98354.71;105767;1256;60507;-74
2023/11/15 09:26:45;;;;;;;8.00;4.70;;;;;;;14.59;62.91;98353.09;106003;1257;60605;-74
2023/11/15 09:29:14;;;;;;;7.60;4.90;;;;;;;14.85;62.74;98349.70;105731;1260;73930;-75
2023/11/15 09:31:43;;;;;;;11.00;5.20;;;;;;;15.15;61.60;98349.02;105937;1254;70423;-75
2023/11/15 09:34:11;;;;;;;10.30;5.10;;;;;;;15.48;60.50;98351.10;105877;1258;71423;-74
2023/11/15 09:36:39;;;;;;;8.90;4.50;;;;;;;15.73;59.55;98343.45;105797;1254;60641;-71
2023/11/15 09:39:09;;;;;;;8.90;5.00;;;;;;;15.97;58.23;98349.80;105861;1253;60594;-73
2023/11/15 09:41:37;;;;;;;10.60;5.30;;;;;;;16.08;57.37;98341.83;105727;1258;76039;-74
2023/11/15 09:44:18;;;;;;;9.70;4.80;;;;;;;16.00;57.11;98345.11;105686;1253;70908;-76
2023/11/15 09:46:45;;;;;;;10.70;5.20;;;;;;;16.01;57.74;98339.45;105825;1257;72686;-74
2023/11/15 09:49:14;;;;;;;8.20;4.70;;;;;;;16.19;57.24;98336.31;105893;1255;60541;-76
2023/11/15 09:51:42;;;;;;;9.70;5.20;;;;;;;16.28;56.83;98332.25;106101;1254;60614;-75
2023/11/15 09:54:12;;;;;;;8.80;4.50;;;;;;;16.41;57.56;98330.98;106096;1254;74016;-74
2023/11/15 09:56:45;;;;;;;6.80;3.80;;;;;;;16.67;56.08;98331.70;106087;1254;70092;-72
2023/11/15 09:59:14;;;;;;;5.90;4.30;;;;;;;16.75;55.27;98339.23;105996;1254;75044;-71
2023/11/15 10:01:44;;;;;;;7.00;4.80;;;;;;;16.83;55.92;98327.86;106129;1255;60448;-75
2023/11/15 10:04:22;;;;;;;9.50;5.70;;;;;;;17.07;54.89;98327.34;106183;1254;60558;-74
2023/11/15 10:06:55;;;;;;;8.10;5.10;;;;;;;17.25;54.65;98324.82;106080;1259;76175;-73
2023/11/15 10:09:39;;;;;;;11.10;5.80;;;;;;;17.05;54.80;98322.31;105971;1254;70253;-74
2023/11/15 10:12:08;;;;;;;11.70;6.80;;;;;;;16.54;55.46;98321.95;106151;1256;73214;-74
2023/11/15 10:14:50;;;;;;;9.90;5.30;;;;;;;16.11;56.06;98328.82;105864;1254;60426;-71
2023/11/15 10:17:20;;;;;;;6.60;4.70;;;;;;;15.85;56.90;98328.07;106226;1254;61042;-71
2023/11/15 10:19:48;;;;;;;9.50;6.10;;;;;;;15.69;57.21;98329.35;105979;1260;74154;-72
2023/11/15 10:22:19;;;;;;;9.50;5.80;;;;;;;15.30;57.86;98331.34;105895;1256;69271;-72
2023/11/15 10:25:04;;;;;;;13.00;6.10;;;;;;;14.99;58.54;98333.71;105890;1256;71574;-71
2023/11/15 10:27:35;;;;;;;7.60;5.40;;;;;;;14.68;59.67;98331.77;105867;1254;60350;-72
2023/11/15 10:30:13;;;;;;;8.70;4.80;;;;;;;14.29;60.59;98341.39;105960;1258;60432;-72
2023/11/15 10:32:41;;;;;;;8.30;5.40;;;;;;;13.85;61.81;98342.63;105924;1254;74783;-72
2023/11/15 10:35:10;;;;;;;10.40;5.90;;;;;;;13.43;62.90;98340.92;108382;1255;69389;-71
2023/11/15 10:37:47;;;;;;;12.10;5.80;;;;;;;12.99;63.92;98341.88;108483;1254;71428;-70
2023/11/15 10:40:16;;;;;;;9.20;5.70;;;;;;;12.51;65.52;98341.96;108617;1255;61056;-72
2023/11/15 10:42:45;;;;;;;9.60;5.70;;;;;;;12.14;66.66;98342.88;108323;1254;58312;-71
2023/11/15 10:45:13;;;;;;;12.10;5.50;;;;;;;11.86;67.84;98347.98;107739;1256;73891;-69
2023/11/15 10:47:44;;;;;;;11.10;5.70;;;;;;;11.58;68.92;98347.75;107094;1253;69583;-70
2023/11/15 10:50:15;;;;;;;8.10;5.00;;;;;;;11.36;69.67;98344.83;107460;1260;71509;-70
2023/11/15 10:52:43;;;;;;;13.80;6.10;;;;;;;11.27;70.57;98345.37;107075;1254;61659;-70
2023/11/15 10:55:12;;;;;;;11.40;6.00;;;;;;;11.15;71.14;98344.19;107256;1260;60369;-69
2023/11/15 10:57:40;;;;;;;9.50;5.20;;;;;;;11.02;71.60;98342.44;107658;1254;73820;-67
2023/11/15 11:00:11;;;;;;;10.00;6.20;;;;;;;10.88;72.31;98347.14;107939;1254;71533;-70
2023/11/15 11:02:41;;;;;;;12.80;5.90;;;;;;;10.75;72.79;98346.11;108495;1255;73823;-77
2023/11/15 11:05:10;;;;;;;9.00;4.80;;;;;;;10.74;73.10;98348.00;108768;1257;61503;-72
2023/11/15 11:07:43;;;;;;;10.80;5.50;;;;;;;10.80;73.34;98347.95;107493;1254;61080;-83
2023/11/15 11:10:23;;;;;;;11.00;5.80;;;;;;;10.80;73.39;98343.21;106281;1254;72705;-82
2023/11/15 11:12:51;;;;;;;9.00;5.60;;;;;;;10.76;73.73;98347.17;105979;1256;72920;-82
2023/11/15 11:15:19;;;;;;;8.60;5.60;;;;;;;10.73;74.04;98347.70;105886;1254;72497;-74
2023/11/15 11:17:48;;;;;;;8.40;4.70;;;;;;;10.70;74.04;98346.32;105827;1254;60548;-73
2023/11/15 11:20:27;;;;;;;9.50;5.10;;;;;;;10.71;74.20;98347.83;105722;1256;61502;-75
2023/11/15 11:23:11;;;;;;;9.70;4.90;;;;;;;10.81;74.32;98343.95;105867;1254;73919;-72
2023/11/15 11:25:39;;;;;;;10.70;5.60;;;;;;;10.86;74.47;98346.53;105866;1258;69273;-73
2023/11/15 11:28:13;;;;;;;7.70;4.80;;;;;;;10.84;74.33;98345.55;105632;1256;73594;-74
2023/11/15 11:30:41;;;;;;;11.10;5.40;;;;;;;10.81;74.40;98345.50;105753;1255;60405;-74
2023/11/15 11:33:10;;;;;;;9.30;5.00;;;;;;;10.78;74.40;98344.65;105867;1256;60440;-73
2023/11/15 11:35:40;;;;;;;9.80;5.10;;;;;;;10.86;74.65;98342.55;105603;1254;75908;-74
2023/11/15 11:38:12;;;;;;;11.30;5.70;;;;;;;10.91;74.67;98343.50;105781;1255;70515;-71